sensor_id;sensor_type;location;lat;lon;timestamp;pressure;altitude;pressure_sealevel;temperature;humidity
38452;BME280;24231;52.514;13.438;2023-08-20T00:02:10;101280.61;;;28.18;48.44
38452;BME280;24231;52.514;13.438;2023-08-20T00:04:38;101282.41;;;30.24;43.78
38452;BME280;24231;52.514;13.438;2023-08-20T00:07:07;101280.87;;;29.32;45.86
38452;BME280;24231;52.514;13.438;2023-08-20T00:09:34;101287.57;;;29.54;44.88
38452;BME280;24231;52.514;13.438;2023-08-20T00:12:01;101282.85;;;29.68;44.95
38452;BME280;24231;52.514;13.438;2023-08-20T00:14:52;101283.69;;;31.03;42.13
38452;BME280;24231;52.514;13.438;2023-08-20T00:17:20;101291.67;;;28.94;46.33
38452;BME280;24231;52.514;13.438;2023-08-20T00:19:48;101293.11;;;29.57;44.87
38452;BME280;24231;52.514;13.438;2023-08-20T00:22:16;101294.55;;;28.67;47.30
38452;BME280;24231;52.514;13.438;2023-08-20T00:24:44;101296.78;;;28.67;47.30
38452;BME280;24231;52.514;13.438;2023-08-20T00:27:11;101299.85;;;27.71;49.62
38452;BME280;24231;52.514;13.438;2023-08-20T00:29:38;101296.41;;;30.04;44.40
38452;BME280;24231;52.514;13.438;2023-08-20T00:32:05;101302.59;;;29.19;46.39
38452;BME280;24231;52.514;13.438;2023-08-20T00:34:32;101303.64;;;29.94;44.23
38452;BME280;24231;52.514;13.438;2023-08-20T00:37:00;101307.85;;;28.93;46.60
38452;BME280;24231;52.514;13.438;2023-08-20T00:39:28;101311.13;;;29.16;46.31
38452;BME280;24231;52.514;13.438;2023-08-20T00:41:55;101308.45;;;29.68;44.64
38452;BME280;24231;52.514;13.438;2023-08-20T00:44:22;101311.90;;;28.86;46.43
38452;BME280;24231;52.514;13.438;2023-08-20T00:46:51;101306.15;;;28.87;45.99
38452;BME280;24231;52.514;13.438;2023-08-20T00:49:18;101304.34;;;28.87;44.45
38452;BME280;24231;52.514;13.438;2023-08-20T00:51:46;101306.71;;;30.99;41.01
38452;BME280;24231;52.514;13.438;2023-08-20T00:54:14;101308.14;;;31.52;40.15
38452;BME280;24231;52.514;13.438;2023-08-20T00:56:42;101308.73;;;30.05;42.71
38452;BME280;24231;52.514;13.438;2023-08-20T00:59:10;101310.37;;;28.91;45.44
38452;BME280;24231;52.514;13.438;2023-08-20T01:01:37;101314.39;;;29.33;44.67
38452;BME280;24231;52.514;13.438;2023-08-20T01:04:05;101314.92;;;28.75;45.69
38452;BME280;24231;52.514;13.438;2023-08-20T01:06:39;101317.06;;;29.77;43.77
38452;BME280;24231;52.514;13.438;2023-08-20T01:09:16;101316.36;;;30.16;43.08
38452;BME280;24231;52.514;13.438;2023-08-20T01:11:51;101325.04;;;29.58;44.03
38452;BME280;24231;52.514;13.438;2023-08-20T01:14:20;101330.44;;;28.45;46.90
38452;BME280;24231;52.514;13.438;2023-08-20T01:16:47;101328.65;;;29.04;46.07
38452;BME280;24231;52.514;13.438;2023-08-20T01:19:17;101329.84;;;29.31;46.03
38452;BME280;24231;52.514;13.438;2023-08-20T01:21:57;101327.23;;;29.23;47.00
38452;BME280;24231;52.514;13.438;2023-08-20T01:24:43;101325.69;;;28.31;49.78
38452;BME280;24231;52.514;13.438;2023-08-20T01:27:28;101330.55;;;28.12;51.16
38452;BME280;24231;52.514;13.438;2023-08-20T01:30:00;101333.43;;;27.97;51.90
38452;BME280;24231;52.514;13.438;2023-08-20T01:32:27;101332.71;;;27.33;54.26
38452;BME280;24231;52.514;13.438;2023-08-20T01:34:55;101334.88;;;27.44;54.96
38452;BME280;24231;52.514;13.438;2023-08-20T01:37:22;101334.40;;;27.57;54.78
38452;BME280;24231;52.514;13.438;2023-08-20T01:39:50;101336.55;;;26.90;56.22
38452;BME280;24231;52.514;13.438;2023-08-20T01:42:18;101336.64;;;27.96;53.48
38452;BME280;24231;52.514;13.438;2023-08-20T01:44:45;101339.51;;;27.36;55.66
38452;BME280;24231;52.514;13.438;2023-08-20T01:47:12;101343.69;;;27.31;56.36
38452;BME280;24231;52.514;13.438;2023-08-20T01:49:39;101347.53;;;27.40;56.06
38452;BME280;24231;52.514;13.438;2023-08-20T01:52:07;101349.47;;;27.36;56.75
38452;BME280;24231;52.514;13.438;2023-08-20T01:54:34;101346.33;;;26.93;57.98
38452;BME280;24231;52.514;13.438;2023-08-20T01:57:01;101347.76;;;26.97;58.44
38452;BME280;24231;52.514;13.438;2023-08-20T01:59:28;101348.40;;;27.37;57.27
38452;BME280;24231;52.514;13.438;2023-08-20T02:01:55;101348.77;;;26.78;59.27
38452;BME280;24231;52.514;13.438;2023-08-20T02:04:22;101353.47;;;27.57;56.47
38452;BME280;24231;52.514;13.438;2023-08-20T02:06:48;101358.61;;;27.41;56.82
38452;BME280;24231;52.514;13.438;2023-08-20T02:09:15;101358.63;;;27.12;57.78
38452;BME280;24231;52.514;13.438;2023-08-20T02:11:43;101357.25;;;26.75;59.62
38452;BME280;24231;52.514;13.438;2023-08-20T02:14:09;101360.50;;;26.80;59.77
38452;BME280;24231;52.514;13.438;2023-08-20T02:16:37;101364.26;;;27.01;58.43
38452;BME280;24231;52.514;13.438;2023-08-20T02:19:04;101363.07;;;26.87;59.13
38452;BME280;24231;52.514;13.438;2023-08-20T02:21:31;101371.62;;;27.70;56.13
38452;BME280;24231;52.514;13.438;2023-08-20T02:23:58;101370.91;;;27.30;57.41
38452;BME280;24231;52.514;13.438;2023-08-20T02:26:25;101371.27;;;26.58;59.34
38452;BME280;24231;52.514;13.438;2023-08-20T02:28:51;101369.86;;;26.55;59.36
38452;BME280;24231;52.514;13.438;2023-08-20T02:31:19;101373.82;;;26.66;60.18
38452;BME280;24231;52.514;13.438;2023-08-20T02:33:46;101379.21;;;27.48;57.29
38452;BME280;24231;52.514;13.438;2023-08-20T02:36:13;101375.52;;;26.68;59.24
38452;BME280;24231;52.514;13.438;2023-08-20T02:38:40;101381.78;;;27.06;58.77
38452;BME280;24231;52.514;13.438;2023-08-20T02:41:07;101384.40;;;27.17;58.45
38452;BME280;24231;52.514;13.438;2023-08-20T02:43:34;101386.23;;;26.96;59.67
38452;BME280;24231;52.514;13.438;2023-08-20T02:46:01;101385.56;;;27.59;57.35
38452;BME280;24231;52.514;13.438;2023-08-20T02:48:29;101383.69;;;26.93;59.65
38452;BME280;24231;52.514;13.438;2023-08-20T02:50:56;101380.58;;;26.75;60.08
38452;BME280;24231;52.514;13.438;2023-08-20T02:53:23;101384.24;;;26.29;61.51
38452;BME280;24231;52.514;13.438;2023-08-20T02:55:50;101385.27;;;27.30;58.69
38452;BME280;24231;52.514;13.438;2023-08-20T02:58:18;101387.63;;;27.09;58.83
38452;BME280;24231;52.514;13.438;2023-08-20T03:00:45;101386.43;;;27.67;57.35
38452;BME280;24231;52.514;13.438;2023-08-20T03:03:12;101392.16;;;27.28;58.37
38452;BME280;24231;52.514;13.438;2023-08-20T03:05:39;101392.00;;;26.33;60.98
38452;BME280;24231;52.514;13.438;2023-08-20T03:08:06;101390.67;;;26.86;59.68
38452;BME280;24231;52.514;13.438;2023-08-20T03:10:34;101388.31;;;26.39;61.98
38452;BME280;24231;52.514;13.438;2023-08-20T03:13:02;101391.61;;;26.75;61.18
38452;BME280;24231;52.514;13.438;2023-08-20T03:15:29;101393.84;;;26.13;62.67
38452;BME280;24231;52.514;13.438;2023-08-20T03:17:57;101402.57;;;26.60;60.98
38452;BME280;24231;52.514;13.438;2023-08-20T03:20:24;101408.71;;;27.13;59.75
38452;BME280;24231;52.514;13.438;2023-08-20T03:22:51;101407.09;;;27.01;59.97
38452;BME280;24231;52.514;13.438;2023-08-20T03:25:18;101411.61;;;26.62;61.03
38452;BME280;24231;52.514;13.438;2023-08-20T03:27:45;101415.04;;;26.75;61.01
38452;BME280;24231;52.514;13.438;2023-08-20T03:30:12;101419.26;;;25.99;63.65
38452;BME280;24231;52.514;13.438;2023-08-20T03:32:40;101418.45;;;25.55;65.16
38452;BME280;24231;52.514;13.438;2023-08-20T03:35:07;101420.90;;;25.88;64.62
38452;BME280;24231;52.514;13.438;2023-08-20T03:37:35;101425.99;;;25.86;64.63
38452;BME280;24231;52.514;13.438;2023-08-20T03:40:02;101427.16;;;25.79;64.75
38452;BME280;24231;52.514;13.438;2023-08-20T03:42:29;101421.29;;;26.09;63.70
38452;BME280;24231;52.514;13.438;2023-08-20T03:44:56;101419.42;;;26.07;63.22
38452;BME280;24231;52.514;13.438;2023-08-20T03:47:33;101419.80;;;26.29;62.57
38452;BME280;24231;52.514;13.438;2023-08-20T03:50:01;101415.70;;;26.89;60.70
38452;BME280;24231;52.514;13.438;2023-08-20T03:52:28;101417.57;;;26.35;62.11
38452;BME280;24231;52.514;13.438;2023-08-20T03:54:55;101423.15;;;26.63;61.21
38452;BME280;24231;52.514;13.438;2023-08-20T03:57:22;101425.98;;;26.48;61.12
38452;BME280;24231;52.514;13.438;2023-08-20T03:59:49;101431.06;;;26.65;60.98
38452;BME280;24231;52.514;13.438;2023-08-20T04:02:16;101438.52;;;26.67;60.87
38452;BME280;24231;52.514;13.438;2023-08-20T04:04:43;101440.99;;;25.70;63.37
38452;BME280;24231;52.514;13.438;2023-08-20T04:07:10;101443.03;;;26.36;61.91
38452;BME280;24231;52.514;13.438;2023-08-20T04:09:38;101442.29;;;26.73;60.39
38452;BME280;24231;52.514;13.438;2023-08-20T04:12:06;101444.70;;;26.19;63.06
38452;BME280;24231;52.514;13.438;2023-08-20T04:14:33;101446.95;;;25.82;63.99
38452;BME280;24231;52.514;13.438;2023-08-20T04:17:01;101446.38;;;26.04;63.34
38452;BME280;24231;52.514;13.438;2023-08-20T04:19:28;101439.15;;;26.42;62.19
38452;BME280;24231;52.514;13.438;2023-08-20T04:21:55;101436.90;;;26.35;61.90
38452;BME280;24231;52.514;13.438;2023-08-20T04:24:21;101432.73;;;25.83;64.14
38452;BME280;24231;52.514;13.438;2023-08-20T04:26:49;101438.55;;;25.87;64.41
38452;BME280;24231;52.514;13.438;2023-08-20T04:29:16;101439.69;;;25.68;65.07
38452;BME280;24231;52.514;13.438;2023-08-20T04:31:43;101441.90;;;25.01;67.67
38452;BME280;24231;52.514;13.438;2023-08-20T04:34:11;101441.55;;;25.32;67.43
38452;BME280;24231;52.514;13.438;2023-08-20T04:36:38;101447.42;;;25.37;67.16
38452;BME280;24231;52.514;13.438;2023-08-20T04:39:05;101455.93;;;25.30;66.68
38452;BME280;24231;52.514;13.438;2023-08-20T04:41:32;101457.58;;;25.96;64.40
38452;BME280;24231;52.514;13.438;2023-08-20T04:43:59;101451.00;;;26.36;62.50
38452;BME280;24231;52.514;13.438;2023-08-20T04:46:27;101445.97;;;26.66;61.80
38452;BME280;24231;52.514;13.438;2023-08-20T04:48:53;101456.27;;;27.24;59.56
38452;BME280;24231;52.514;13.438;2023-08-20T04:51:21;101464.49;;;26.63;60.53
38452;BME280;24231;52.514;13.438;2023-08-20T04:53:48;101470.83;;;28.43;54.92
38452;BME280;24231;52.514;13.438;2023-08-20T04:56:15;101466.38;;;29.03;52.62
38452;BME280;24231;52.514;13.438;2023-08-20T04:58:42;101469.11;;;29.17;52.12
38452;BME280;24231;52.514;13.438;2023-08-20T05:01:10;101460.87;;;28.85;52.68
38452;BME280;24231;52.514;13.438;2023-08-20T05:03:37;101458.78;;;28.91;52.53
38452;BME280;24231;52.514;13.438;2023-08-20T05:06:04;101462.82;;;29.07;52.07
38452;BME280;24231;52.514;13.438;2023-08-20T05:08:31;101465.91;;;28.41;54.16
38452;BME280;24231;52.514;13.438;2023-08-20T05:10:58;101462.15;;;29.07;51.75
38452;BME280;24231;52.514;13.438;2023-08-20T05:13:25;101470.18;;;28.40;54.31
38452;BME280;24231;52.514;13.438;2023-08-20T05:15:52;101480.27;;;28.70;53.18
38452;BME280;24231;52.514;13.438;2023-08-20T05:18:19;101476.21;;;28.86;52.55
38452;BME280;24231;52.514;13.438;2023-08-20T05:20:46;101474.05;;;29.23;51.74
38452;BME280;24231;52.514;13.438;2023-08-20T05:23:14;101474.63;;;29.22;51.76
38452;BME280;24231;52.514;13.438;2023-08-20T05:25:41;101477.34;;;28.77;53.08
38452;BME280;24231;52.514;13.438;2023-08-20T05:28:07;101473.32;;;29.18;51.81
38452;BME280;24231;52.514;13.438;2023-08-20T05:30:34;101477.56;;;29.13;51.95
38452;BME280;24231;52.514;13.438;2023-08-20T05:33:02;101485.16;;;29.13;51.97
38452;BME280;24231;52.514;13.438;2023-08-20T05:35:28;101494.77;;;28.11;54.79
38452;BME280;24231;52.514;13.438;2023-08-20T05:37:55;101496.59;;;29.11;51.91
38452;BME280;24231;52.514;13.438;2023-08-20T05:40:22;101503.45;;;29.12;51.91
38452;BME280;24231;52.514;13.438;2023-08-20T05:42:49;101505.97;;;29.44;50.42
38452;BME280;24231;52.514;13.438;2023-08-20T05:45:16;101512.34;;;28.75;52.91
38452;BME280;24231;52.514;13.438;2023-08-20T05:47:43;101506.45;;;27.29;58.05
38452;BME280;24231;52.514;13.438;2023-08-20T05:50:10;101508.13;;;27.47;58.10
38452;BME280;24231;52.514;13.438;2023-08-20T05:52:36;101513.12;;;27.40;58.13
38452;BME280;24231;52.514;13.438;2023-08-20T05:55:04;101518.61;;;28.11;55.66
38452;BME280;24231;52.514;13.438;2023-08-20T05:57:31;101524.06;;;27.39;57.67
38452;BME280;24231;52.514;13.438;2023-08-20T05:59:58;101523.83;;;27.72;57.00
38452;BME280;24231;52.514;13.438;2023-08-20T06:02:25;101525.64;;;28.27;55.15
38452;BME280;24231;52.514;13.438;2023-08-20T06:04:52;101519.34;;;28.19;55.37
38452;BME280;24231;52.514;13.438;2023-08-20T06:07:20;101509.87;;;27.84;56.36
38452;BME280;24231;52.514;13.438;2023-08-20T06:09:48;101510.48;;;28.28;55.21
38452;BME280;24231;52.514;13.438;2023-08-20T06:12:15;101510.89;;;27.58;57.08
38452;BME280;24231;52.514;13.438;2023-08-20T06:14:42;101520.00;;;27.31;58.27
38452;BME280;24231;52.514;13.438;2023-08-20T06:17:09;101511.38;;;27.27;58.82
38452;BME280;24231;52.514;13.438;2023-08-20T06:19:36;101504.27;;;27.14;58.95
38452;BME280;24231;52.514;13.438;2023-08-20T06:22:03;101506.26;;;25.87;63.06
38452;BME280;24231;52.514;13.438;2023-08-20T06:24:30;101515.78;;;27.17;59.01
38452;BME280;24231;52.514;13.438;2023-08-20T06:26:57;101526.96;;;27.92;56.11
38452;BME280;24231;52.514;13.438;2023-08-20T06:29:24;101528.42;;;27.69;56.41
38452;BME280;24231;52.514;13.438;2023-08-20T06:31:51;101538.48;;;27.77;56.35
38452;BME280;24231;52.514;13.438;2023-08-20T06:34:18;101543.28;;;27.31;58.02
38452;BME280;24231;52.514;13.438;2023-08-20T06:36:45;101543.75;;;26.99;58.39
38452;BME280;24231;52.514;13.438;2023-08-20T06:39:12;101551.57;;;28.37;54.67
38452;BME280;24231;52.514;13.438;2023-08-20T06:41:39;101550.19;;;28.22;54.96
38452;BME280;24231;52.514;13.438;2023-08-20T06:44:06;101554.19;;;28.61;53.06
38452;BME280;24231;52.514;13.438;2023-08-20T06:46:33;101550.61;;;28.79;52.57
38452;BME280;24231;52.514;13.438;2023-08-20T06:48:59;101557.25;;;28.24;53.97
38452;BME280;24231;52.514;13.438;2023-08-20T06:51:27;101553.85;;;28.74;53.12
38452;BME280;24231;52.514;13.438;2023-08-20T06:53:54;101554.92;;;28.34;53.87
38452;BME280;24231;52.514;13.438;2023-08-20T06:56:21;101556.28;;;27.19;57.57
38452;BME280;24231;52.514;13.438;2023-08-20T06:58:48;101561.44;;;27.20;58.38
38452;BME280;24231;52.514;13.438;2023-08-20T07:01:14;101560.62;;;26.52;60.43
38452;BME280;24231;52.514;13.438;2023-08-20T07:03:43;101563.16;;;25.87;62.56
38452;BME280;24231;52.514;13.438;2023-08-20T07:06:11;101568.65;;;27.16;58.92
38452;BME280;24231;52.514;13.438;2023-08-20T07:08:38;101571.10;;;26.98;58.90
38452;BME280;24231;52.514;13.438;2023-08-20T07:11:06;101576.21;;;27.65;56.85
38452;BME280;24231;52.514;13.438;2023-08-20T07:13:33;101591.00;;;27.07;58.41
38452;BME280;24231;52.514;13.438;2023-08-20T07:16:00;101593.47;;;27.05;58.63
38452;BME280;24231;52.514;13.438;2023-08-20T07:18:28;101590.20;;;27.44;57.05
38452;BME280;24231;52.514;13.438;2023-08-20T07:20:55;101594.03;;;27.77;55.77
38452;BME280;24231;52.514;13.438;2023-08-20T07:23:23;101596.70;;;26.98;57.85
38452;BME280;24231;52.514;13.438;2023-08-20T07:25:50;101590.31;;;27.99;54.93
38452;BME280;24231;52.514;13.438;2023-08-20T07:28:18;101594.91;;;27.69;56.04
38452;BME280;24231;52.514;13.438;2023-08-20T07:30:46;101595.95;;;27.02;57.83
38452;BME280;24231;52.514;13.438;2023-08-20T07:33:14;101605.90;;;26.03;61.64
38452;BME280;24231;52.514;13.438;2023-08-20T07:35:41;101611.83;;;27.38;57.34
38452;BME280;24231;52.514;13.438;2023-08-20T07:38:08;101608.79;;;27.29;57.09
38452;BME280;24231;52.514;13.438;2023-08-20T07:40:36;101603.42;;;28.13;55.16
38452;BME280;24231;52.514;13.438;2023-08-20T07:43:03;101603.01;;;28.40;53.83
38452;BME280;24231;52.514;13.438;2023-08-20T07:45:31;101600.00;;;28.64;53.10
38452;BME280;24231;52.514;13.438;2023-08-20T07:47:58;101596.05;;;28.95;52.25
38452;BME280;24231;52.514;13.438;2023-08-20T07:50:25;101600.94;;;27.99;54.41
38452;BME280;24231;52.514;13.438;2023-08-20T07:52:53;101608.56;;;27.81;54.94
38452;BME280;24231;52.514;13.438;2023-08-20T07:55:20;101619.93;;;27.33;57.12
38452;BME280;24231;52.514;13.438;2023-08-20T07:57:47;101620.77;;;26.91;58.23
38452;BME280;24231;52.514;13.438;2023-08-20T08:00:15;101617.25;;;26.73;57.99
38452;BME280;24231;52.514;13.438;2023-08-20T08:02:42;101620.41;;;26.67;58.99
38452;BME280;24231;52.514;13.438;2023-08-20T08:05:09;101623.68;;;27.25;57.43
38452;BME280;24231;52.514;13.438;2023-08-20T08:07:36;101627.48;;;27.08;57.71
38452;BME280;24231;52.514;13.438;2023-08-20T08:10:04;101626.70;;;28.10;53.62
38452;BME280;24231;52.514;13.438;2023-08-20T08:12:31;101621.00;;;27.91;54.44
38452;BME280;24231;52.514;13.438;2023-08-20T08:14:59;101617.91;;;28.16;54.03
38452;BME280;24231;52.514;13.438;2023-08-20T08:17:25;101621.01;;;28.29;53.23
38452;BME280;24231;52.514;13.438;2023-08-20T08:19:52;101631.18;;;29.53;49.55
38452;BME280;24231;52.514;13.438;2023-08-20T08:22:20;101629.62;;;29.41;49.13
38452;BME280;24231;52.514;13.438;2023-08-20T08:24:46;101627.50;;;28.98;50.02
38452;BME280;24231;52.514;13.438;2023-08-20T08:27:13;101627.36;;;29.63;48.26
38452;BME280;24231;52.514;13.438;2023-08-20T08:29:40;101632.38;;;29.69;47.34
38452;BME280;24231;52.514;13.438;2023-08-20T08:32:08;101633.21;;;29.19;48.80
38452;BME280;24231;52.514;13.438;2023-08-20T08:34:35;101632.81;;;29.06;50.08
38452;BME280;24231;52.514;13.438;2023-08-20T08:37:02;101628.55;;;29.90;48.03
38452;BME280;24231;52.514;13.438;2023-08-20T08:39:29;101621.34;;;30.21;46.08
38452;BME280;24231;52.514;13.438;2023-08-20T08:42:00;101622.45;;;29.77;46.89
38452;BME280;24231;52.514;13.438;2023-08-20T08:44:28;101630.00;;;30.95;44.86
38452;BME280;24231;52.514;13.438;2023-08-20T08:46:55;101626.75;;;31.13;44.49
38452;BME280;24231;52.514;13.438;2023-08-20T08:49:22;101624.66;;;32.03;42.21
38452;BME280;24231;52.514;13.438;2023-08-20T08:51:51;101622.27;;;32.49;40.69
38452;BME280;24231;52.514;13.438;2023-08-20T08:54:18;101620.12;;;32.02;41.26
38452;BME280;24231;52.514;13.438;2023-08-20T08:56:47;101616.40;;;31.88;41.40
38452;BME280;24231;52.514;13.438;2023-08-20T08:59:14;101620.68;;;32.22;40.75
38452;BME280;24231;52.514;13.438;2023-08-20T09:01:41;101621.97;;;32.44;40.14
38452;BME280;24231;52.514;13.438;2023-08-20T09:04:09;101627.47;;;33.26;38.42
38452;BME280;24231;52.514;13.438;2023-08-20T09:06:52;101622.09;;;33.66;37.73
38452;BME280;24231;52.514;13.438;2023-08-20T09:09:20;101619.99;;;33.50;37.75
38452;BME280;24231;52.514;13.438;2023-08-20T09:11:48;101619.61;;;33.99;37.35
38452;BME280;24231;52.514;13.438;2023-08-20T09:14:23;101624.57;;;34.30;36.10
38452;BME280;24231;52.514;13.438;2023-08-20T09:16:55;101619.30;;;34.24;37.10
38452;BME280;24231;52.514;13.438;2023-08-20T09:19:22;101619.96;;;33.03;37.11
38452;BME280;24231;52.514;13.438;2023-08-20T09:21:50;101615.55;;;33.68;36.32
38452;BME280;24231;52.514;13.438;2023-08-20T09:24:25;101615.43;;;33.41;37.81
38452;BME280;24231;52.514;13.438;2023-08-20T09:26:57;101613.58;;;33.36;36.77
38452;BME280;24231;52.514;13.438;2023-08-20T09:29:24;101609.35;;;33.75;37.63
38452;BME280;24231;52.514;13.438;2023-08-20T09:32:00;101601.99;;;33.89;37.38
38452;BME280;24231;52.514;13.438;2023-08-20T09:34:36;101604.67;;;34.28;36.40
38452;BME280;24231;52.514;13.438;2023-08-20T09:37:05;101609.32;;;33.22;37.30
38452;BME280;24231;52.514;13.438;2023-08-20T09:39:34;101599.67;;;34.06;36.46
38452;BME280;24231;52.514;13.438;2023-08-20T09:42:02;101595.83;;;34.40;36.37
38452;BME280;24231;52.514;13.438;2023-08-20T09:44:33;101591.75;;;34.50;36.37
38452;BME280;24231;52.514;13.438;2023-08-20T09:47:02;101593.51;;;34.32;36.04
38452;BME280;24231;52.514;13.438;2023-08-20T09:49:29;101602.42;;;34.70;35.00
38452;BME280;24231;52.514;13.438;2023-08-20T09:51:57;101609.65;;;34.58;35.84
38452;BME280;24231;52.514;13.438;2023-08-20T09:54:31;101610.85;;;34.94;35.15
38452;BME280;24231;52.514;13.438;2023-08-20T09:57:01;101609.99;;;34.38;35.90
38452;BME280;24231;52.514;13.438;2023-08-20T09:59:34;101607.78;;;35.13;33.95
38452;BME280;24231;52.514;13.438;2023-08-20T10:02:01;101607.07;;;33.84;35.35
38452;BME280;24231;52.514;13.438;2023-08-20T10:04:29;101611.98;;;33.40;36.49
38452;BME280;24231;52.514;13.438;2023-08-20T10:06:57;101610.09;;;33.92;36.43
38452;BME280;24231;52.514;13.438;2023-08-20T10:09:25;101617.05;;;33.64;35.74
38452;BME280;24231;52.514;13.438;2023-08-20T10:11:52;101615.10;;;33.00;36.78
38452;BME280;24231;52.514;13.438;2023-08-20T10:14:19;101612.95;;;33.38;35.37
38452;BME280;24231;52.514;13.438;2023-08-20T10:16:47;101612.94;;;33.78;36.43
38452;BME280;24231;52.514;13.438;2023-08-20T10:19:16;101608.56;;;33.97;34.83
38452;BME280;24231;52.514;13.438;2023-08-20T10:21:44;101617.23;;;33.32;35.26
38452;BME280;24231;52.514;13.438;2023-08-20T10:24:16;101609.32;;;34.07;34.20
38452;BME280;24231;52.514;13.438;2023-08-20T10:26:45;101611.11;;;33.18;34.87
38452;BME280;24231;52.514;13.438;2023-08-20T10:29:46;101608.27;;;33.77;34.54
38452;BME280;24231;52.514;13.438;2023-08-20T10:32:13;101599.73;;;34.08;34.38
38452;BME280;24231;52.514;13.438;2023-08-20T10:34:43;101599.28;;;34.43;32.56
38452;BME280;24231;52.514;13.438;2023-08-20T10:37:26;101599.05;;;34.69;32.58
38452;BME280;24231;52.514;13.438;2023-08-20T10:39:54;101601.43;;;33.86;33.05
38452;BME280;24231;52.514;13.438;2023-08-20T10:42:23;101602.44;;;33.83;33.31
38452;BME280;24231;52.514;13.438;2023-08-20T10:45:01;101594.07;;;34.26;32.74
38452;BME280;24231;52.514;13.438;2023-08-20T10:47:41;101594.87;;;34.08;32.80
38452;BME280;24231;52.514;13.438;2023-08-20T10:50:09;101600.24;;;32.73;33.91
38452;BME280;24231;52.514;13.438;2023-08-20T10:52:39;101594.63;;;34.04;32.79
38452;BME280;24231;52.514;13.438;2023-08-20T10:55:07;101593.83;;;34.40;32.65
38452;BME280;24231;52.514;13.438;2023-08-20T10:57:35;101593.38;;;34.13;32.00
38452;BME280;24231;52.514;13.438;2023-08-20T11:00:05;101596.18;;;34.17;32.11
38452;BME280;24231;52.514;13.438;2023-08-20T11:02:33;101600.00;;;33.68;31.87
38452;BME280;24231;52.514;13.438;2023-08-20T11:05:00;101599.82;;;33.76;31.75
38452;BME280;24231;52.514;13.438;2023-08-20T11:07:27;101595.79;;;33.62;31.05
38452;BME280;24231;52.514;13.438;2023-08-20T11:09:55;101599.95;;;33.09;32.33
38452;BME280;24231;52.514;13.438;2023-08-20T11:12:24;101598.76;;;32.89;32.65
38452;BME280;24231;52.514;13.438;2023-08-20T11:14:51;101600.21;;;32.56;33.35
38452;BME280;24231;52.514;13.438;2023-08-20T11:17:17;101607.61;;;32.64;33.07
38452;BME280;24231;52.514;13.438;2023-08-20T11:19:45;101608.39;;;32.87;32.79
38452;BME280;24231;52.514;13.438;2023-08-20T11:22:12;101603.17;;;32.60;32.80
38452;BME280;24231;52.514;13.438;2023-08-20T11:24:42;101602.76;;;33.29;32.71
38452;BME280;24231;52.514;13.438;2023-08-20T11:27:09;101603.05;;;33.47;32.06
38452;BME280;24231;52.514;13.438;2023-08-20T11:29:36;101600.34;;;33.49;32.80
38452;BME280;24231;52.514;13.438;2023-08-20T11:32:04;101601.38;;;33.05;31.67
38452;BME280;24231;52.514;13.438;2023-08-20T11:34:31;101603.69;;;33.67;32.01
38452;BME280;24231;52.514;13.438;2023-08-20T11:36:59;101602.59;;;33.63;32.05
38452;BME280;24231;52.514;13.438;2023-08-20T11:39:26;101604.01;;;33.60;32.00
38452;BME280;24231;52.514;13.438;2023-08-20T11:41:55;101602.96;;;33.33;31.99
38452;BME280;24231;52.514;13.438;2023-08-20T11:44:23;101606.54;;;33.11;32.74
38452;BME280;24231;52.514;13.438;2023-08-20T11:46:50;101603.67;;;33.71;31.45
38452;BME280;24231;52.514;13.438;2023-08-20T11:49:17;101600.67;;;33.31;31.74
38452;BME280;24231;52.514;13.438;2023-08-20T11:51:47;101594.79;;;32.74;32.17
38452;BME280;24231;52.514;13.438;2023-08-20T11:54:15;101597.55;;;33.16;31.98
38452;BME280;24231;52.514;13.438;2023-08-20T11:56:44;101600.14;;;33.27;31.80
38452;BME280;24231;52.514;13.438;2023-08-20T11:59:11;101596.32;;;30.63;34.36
38452;BME280;24231;52.514;13.438;2023-08-20T12:01:39;101599.37;;;32.68;33.11
38452;BME280;24231;52.514;13.438;2023-08-20T12:04:08;101599.66;;;32.94;31.88
38452;BME280;24231;52.514;13.438;2023-08-20T12:06:37;101599.52;;;33.26;31.97
38452;BME280;24231;52.514;13.438;2023-08-20T12:09:20;101600.12;;;33.38;31.61
38452;BME280;24231;52.514;13.438;2023-08-20T12:11:49;101594.34;;;33.16;32.21
38452;BME280;24231;52.514;13.438;2023-08-20T12:14:16;101589.23;;;32.83;32.10
38452;BME280;24231;52.514;13.438;2023-08-20T12:16:43;101589.08;;;32.81;32.61
38452;BME280;24231;52.514;13.438;2023-08-20T12:19:21;101588.39;;;32.01;33.91
38452;BME280;24231;52.514;13.438;2023-08-20T12:21:48;101582.17;;;33.67;31.95
38452;BME280;24231;52.514;13.438;2023-08-20T12:24:15;101589.22;;;33.39;31.95
38452;BME280;24231;52.514;13.438;2023-08-20T12:26:43;101583.28;;;33.66;30.74
38452;BME280;24231;52.514;13.438;2023-08-20T12:29:10;101581.82;;;32.43;32.25
38452;BME280;24231;52.514;13.438;2023-08-20T12:31:38;101578.35;;;32.16;33.63
38452;BME280;24231;52.514;13.438;2023-08-20T12:34:05;101581.01;;;33.18;32.12
38452;BME280;24231;52.514;13.438;2023-08-20T12:36:32;101579.90;;;32.31;34.09
38452;BME280;24231;52.514;13.438;2023-08-20T12:38:59;101582.57;;;32.54;33.00
38452;BME280;24231;52.514;13.438;2023-08-20T12:41:26;101575.50;;;32.14;32.71
38452;BME280;24231;52.514;13.438;2023-08-20T12:43:54;101578.34;;;32.02;33.14
38452;BME280;24231;52.514;13.438;2023-08-20T12:46:21;101577.79;;;31.14;34.44